sensor_id;sensor_type;location;lat;lon;timestamp;pressure;altitude;pressure_sealevel;temperature;humidity
50105;BME280;47690;39.202;-77.198;2023-04-01T00:02:00;99925.22;;;45.03;8.62
50105;BME280;47690;39.202;-77.198;2023-04-01T00:04:29;99924.56;;;44.58;8.81
50105;BME280;47690;39.202;-77.198;2023-04-01T00:07:00;99934.41;;;44.64;8.89
50105;BME280;47690;39.202;-77.198;2023-04-01T00:09:30;99923.84;;;44.68;8.19
50105;BME280;47690;39.202;-77.198;2023-04-01T00:11:59;99921.75;;;44.47;8.88
50105;BME280;47690;39.202;-77.198;2023-04-01T00:14:29;99931.53;;;44.48;8.68
50105;BME280;47690;39.202;-77.198;2023-04-01T00:16:59;99916.28;;;44.42;8.58
50105;BME280;47690;39.202;-77.198;2023-04-01T00:19:29;99914.88;;;44.34;8.51
50105;BME280;47690;39.202;-77.198;2023-04-01T00:22:00;99923.19;;;44.23;8.47
50105;BME280;47690;39.202;-77.198;2023-04-01T00:24:29;99926.56;;;44.13;8.70
50105;BME280;47690;39.202;-77.198;2023-04-01T00:27:00;99933.38;;;44.15;8.79
50105;BME280;47690;39.202;-77.198;2023-04-01T00:29:29;99933.50;;;44.03;8.60
50105;BME280;47690;39.202;-77.198;2023-04-01T00:32:01;99937.97;;;44.15;8.92
50105;BME280;47690;39.202;-77.198;2023-04-01T00:34:30;99937.13;;;44.09;8.82
50105;BME280;47690;39.202;-77.198;2023-04-01T00:37:00;99943.03;;;44.06;9.06
50105;BME280;47690;39.202;-77.198;2023-04-01T00:39:30;99935.88;;;43.33;9.74
50105;BME280;47690;39.202;-77.198;2023-04-01T00:42:02;99926.63;;;43.73;9.23
50105;BME280;47690;39.202;-77.198;2023-04-01T00:44:33;99917.53;;;44.07;9.22
50105;BME280;47690;39.202;-77.198;2023-04-01T00:47:02;99917.75;;;44.00;9.10
50105;BME280;47690;39.202;-77.198;2023-04-01T00:49:37;99922.34;;;44.00;9.04
50105;BME280;47690;39.202;-77.198;2023-04-01T00:52:11;99930.88;;;43.24;9.96
50105;BME280;47690;39.202;-77.198;2023-04-01T00:54:43;99918.00;;;43.99;9.05
50105;BME280;47690;39.202;-77.198;2023-04-01T00:57:32;99911.94;;;44.74;9.20
50105;BME280;47690;39.202;-77.198;2023-04-01T01:00:06;99907.56;;;44.68;8.56
50105;BME280;47690;39.202;-77.198;2023-04-01T01:02:47;99900.09;;;44.58;8.74
50105;BME280;47690;39.202;-77.198;2023-04-01T01:05:27;99902.94;;;44.68;8.85
50105;BME280;47690;39.202;-77.198;2023-04-01T01:11:00;99908.88;;;45.41;8.87
50105;BME280;47690;39.202;-77.198;2023-04-01T01:16:29;99924.75;;;45.75;8.69
50105;BME280;47690;39.202;-77.198;2023-04-01T01:19:14;99931.53;;;44.48;9.40
50105;BME280;47690;39.202;-77.198;2023-04-01T01:28:31;99917.53;;;44.29;9.24
50105;BME280;47690;39.202;-77.198;2023-04-01T01:36:32;99896.03;;;44.00;9.50
50105;BME280;47690;39.202;-77.198;2023-04-01T01:39:09;99902.25;;;43.96;9.65
50105;BME280;47690;39.202;-77.198;2023-04-01T01:41:41;99891.00;;;44.09;9.67
50105;BME280;47690;39.202;-77.198;2023-04-01T01:44:12;99884.84;;;43.69;9.67
50105;BME280;47690;39.202;-77.198;2023-04-01T01:46:43;99862.31;;;43.91;9.65
50105;BME280;47690;39.202;-77.198;2023-04-01T01:49:14;99854.56;;;43.77;9.76
50105;BME280;47690;39.202;-77.198;2023-04-01T01:51:46;99852.69;;;44.05;9.63
50105;BME280;47690;39.202;-77.198;2023-04-01T01:54:18;99862.63;;;44.22;9.73
50105;BME280;47690;39.202;-77.198;2023-04-01T01:56:50;99855.72;;;43.37;9.94
50105;BME280;47690;39.202;-77.198;2023-04-01T01:59:23;99843.63;;;43.67;10.02
50105;BME280;47690;39.202;-77.198;2023-04-01T02:01:56;99846.06;;;43.96;9.75
50105;BME280;47690;39.202;-77.198;2023-04-01T02:04:29;99848.41;;;43.82;10.00
50105;BME280;47690;39.202;-77.198;2023-04-01T02:07:03;99836.63;;;43.99;10.01
50105;BME280;47690;39.202;-77.198;2023-04-01T02:09:34;99829.84;;;44.29;9.55
50105;BME280;47690;39.202;-77.198;2023-04-01T02:12:07;99834.09;;;44.52;10.04
50105;BME280;47690;39.202;-77.198;2023-04-01T02:14:50;99823.78;;;44.54;10.22
50105;BME280;47690;39.202;-77.198;2023-04-01T02:17:24;99796.28;;;44.78;9.60
50105;BME280;47690;39.202;-77.198;2023-04-01T02:20:04;99807.47;;;44.16;10.03
50105;BME280;47690;39.202;-77.198;2023-04-01T02:22:42;99792.28;;;43.88;10.55
50105;BME280;47690;39.202;-77.198;2023-04-01T02:25:16;99793.34;;;43.82;10.19
50105;BME280;47690;39.202;-77.198;2023-04-01T02:27:47;99793.38;;;43.87;10.14
50105;BME280;47690;39.202;-77.198;2023-04-01T02:30:17;99794.69;;;43.84;10.11
50105;BME280;47690;39.202;-77.198;2023-04-01T02:32:48;99803.44;;;44.19;9.97
50105;BME280;47690;39.202;-77.198;2023-04-01T02:35:19;99790.56;;;44.74;9.61
50105;BME280;47690;39.202;-77.198;2023-04-01T02:37:49;99774.81;;;44.39;9.66
50105;BME280;47690;39.202;-77.198;2023-04-01T02:40:19;99789.59;;;44.53;9.93
50105;BME280;47690;39.202;-77.198;2023-04-01T02:42:49;99785.78;;;44.16;10.07
50105;BME280;47690;39.202;-77.198;2023-04-01T02:45:22;99784.25;;;44.64;9.74
50105;BME280;47690;39.202;-77.198;2023-04-01T02:47:51;99795.34;;;44.24;10.00
50105;BME280;47690;39.202;-77.198;2023-04-01T02:50:20;99788.78;;;44.53;10.39
50105;BME280;47690;39.202;-77.198;2023-04-01T02:52:49;99801.91;;;44.28;10.55
50105;BME280;47690;39.202;-77.198;2023-04-01T02:55:19;99808.41;;;44.60;9.68
50105;BME280;47690;39.202;-77.198;2023-04-01T02:57:48;99804.06;;;44.26;10.14
50105;BME280;47690;39.202;-77.198;2023-04-01T03:00:17;99788.81;;;44.20;10.19
50105;BME280;47690;39.202;-77.198;2023-04-01T03:02:47;99778.41;;;44.44;10.08
50105;BME280;47690;39.202;-77.198;2023-04-01T03:05:15;99769.81;;;44.20;10.69
50105;BME280;47690;39.202;-77.198;2023-04-01T03:07:45;99760.78;;;44.14;10.66
50105;BME280;47690;39.202;-77.198;2023-04-01T03:10:14;99752.31;;;44.05;10.29
50105;BME280;47690;39.202;-77.198;2023-04-01T03:12:43;99754.94;;;44.23;10.58
50105;BME280;47690;39.202;-77.198;2023-04-01T03:15:13;99734.69;;;44.94;10.35
50105;BME280;47690;39.202;-77.198;2023-04-01T03:17:44;99739.03;;;44.95;9.94
50105;BME280;47690;39.202;-77.198;2023-04-01T03:20:15;99741.56;;;45.07;10.28
50105;BME280;47690;39.202;-77.198;2023-04-01T03:22:44;99748.06;;;45.06;10.04
50105;BME280;47690;39.202;-77.198;2023-04-01T03:25:14;99753.00;;;45.20;9.86
50105;BME280;47690;39.202;-77.198;2023-04-01T03:27:44;99754.91;;;45.24;10.05
50105;BME280;47690;39.202;-77.198;2023-04-01T03:30:13;99744.06;;;45.19;10.39
50105;BME280;47690;39.202;-77.198;2023-04-01T03:32:49;99736.19;;;45.23;10.02
50105;BME280;47690;39.202;-77.198;2023-04-01T03:35:19;99738.38;;;45.31;10.03
50105;BME280;47690;39.202;-77.198;2023-04-01T03:37:52;99725.13;;;46.02;9.65
50105;BME280;47690;39.202;-77.198;2023-04-01T03:40:22;99726.75;;;45.51;10.47
50105;BME280;47690;39.202;-77.198;2023-04-01T03:42:53;99727.75;;;45.40;9.90
50105;BME280;47690;39.202;-77.198;2023-04-01T03:45:22;99728.09;;;45.54;9.83
50105;BME280;47690;39.202;-77.198;2023-04-01T03:47:51;99730.47;;;45.40;10.53
50105;BME280;47690;39.202;-77.198;2023-04-01T03:50:21;99728.38;;;45.42;10.38
50105;BME280;47690;39.202;-77.198;2023-04-01T03:52:49;99717.66;;;45.20;10.55
50105;BME280;47690;39.202;-77.198;2023-04-01T03:55:19;99705.00;;;44.77;11.03
50105;BME280;47690;39.202;-77.198;2023-04-01T03:57:49;99693.81;;;44.63;10.67
50105;BME280;47690;39.202;-77.198;2023-04-01T04:00:19;99696.53;;;44.63;11.19
50105;BME280;47690;39.202;-77.198;2023-04-01T04:02:52;99690.56;;;47.85;9.43
50105;BME280;47690;39.202;-77.198;2023-04-01T04:05:27;99697.94;;;45.87;9.75
50105;BME280;47690;39.202;-77.198;2023-04-01T04:08:00;99675.59;;;45.69;10.53
50105;BME280;47690;39.202;-77.198;2023-04-01T04:10:29;99654.41;;;45.50;10.07
50105;BME280;47690;39.202;-77.198;2023-04-01T04:13:00;99649.47;;;45.11;11.11
50105;BME280;47690;39.202;-77.198;2023-04-01T04:15:32;99624.78;;;45.59;10.50
50105;BME280;47690;39.202;-77.198;2023-04-01T04:18:01;99595.47;;;46.43;10.09
50105;BME280;47690;39.202;-77.198;2023-04-01T04:20:30;99572.50;;;45.99;9.62
50105;BME280;47690;39.202;-77.198;2023-04-01T04:23:00;99565.75;;;45.54;9.90
50105;BME280;47690;39.202;-77.198;2023-04-01T04:25:29;99563.59;;;45.15;10.61
50105;BME280;47690;39.202;-77.198;2023-04-01T04:28:00;99563.03;;;45.08;10.90
50105;BME280;47690;39.202;-77.198;2023-04-01T04:30:29;99547.84;;;45.48;10.61
50105;BME280;47690;39.202;-77.198;2023-04-01T04:33:00;99553.81;;;45.45;10.71
50105;BME280;47690;39.202;-77.198;2023-04-01T04:35:29;99530.66;;;45.84;10.12
50105;BME280;47690;39.202;-77.198;2023-04-01T04:38:00;99550.16;;;46.07;10.18
50105;BME280;47690;39.202;-77.198;2023-04-01T04:40:29;99557.19;;;46.79;9.72
50105;BME280;47690;39.202;-77.198;2023-04-01T04:43:00;99564.88;;;46.06;9.99
50105;BME280;47690;39.202;-77.198;2023-04-01T04:45:30;99571.44;;;45.79;10.46
50105;BME280;47690;39.202;-77.198;2023-04-01T04:48:00;99579.09;;;45.82;10.21
50105;BME280;47690;39.202;-77.198;2023-04-01T04:50:29;99554.00;;;45.95;9.98
50105;BME280;47690;39.202;-77.198;2023-04-01T04:53:00;99536.06;;;45.79;10.19
50105;BME280;47690;39.202;-77.198;2023-04-01T04:55:30;99522.53;;;45.22;10.68
50105;BME280;47690;39.202;-77.198;2023-04-01T04:58:19;99505.63;;;45.72;10.43
50105;BME280;47690;39.202;-77.198;2023-04-01T05:00:49;99500.53;;;45.23;10.57
50105;BME280;47690;39.202;-77.198;2023-04-01T05:03:25;99518.19;;;44.95;10.75
50105;BME280;47690;39.202;-77.198;2023-04-01T05:05:56;99510.59;;;45.28;11.09
50105;BME280;47690;39.202;-77.198;2023-04-01T05:08:27;99501.91;;;45.47;11.11
50105;BME280;47690;39.202;-77.198;2023-04-01T05:10:56;99503.78;;;45.25;11.34
50105;BME280;47690;39.202;-77.198;2023-04-01T05:13:29;99498.66;;;45.24;11.32
50105;BME280;47690;39.202;-77.198;2023-04-01T05:16:00;99485.84;;;45.24;10.80
50105;BME280;47690;39.202;-77.198;2023-04-01T05:18:29;99481.22;;;46.32;10.11
50105;BME280;47690;39.202;-77.198;2023-04-01T05:20:59;99475.00;;;46.21;10.80
50105;BME280;47690;39.202;-77.198;2023-04-01T05:23:31;99459.84;;;46.00;10.42
50105;BME280;47690;39.202;-77.198;2023-04-01T05:26:10;99440.78;;;46.05;10.65
50105;BME280;47690;39.202;-77.198;2023-04-01T05:28:39;99433.91;;;45.36;10.92
50105;BME280;47690;39.202;-77.198;2023-04-01T05:31:08;99424.47;;;45.18;11.48
50105;BME280;47690;39.202;-77.198;2023-04-01T05:33:40;99439.63;;;45.50;10.90
50105;BME280;47690;39.202;-77.198;2023-04-01T05:36:12;99414.13;;;45.15;11.46
50105;BME280;47690;39.202;-77.198;2023-04-01T05:38:43;99398.66;;;45.10;11.71
50105;BME280;47690;39.202;-77.198;2023-04-01T05:41:16;99392.34;;;45.36;11.04
50105;BME280;47690;39.202;-77.198;2023-04-01T05:43:46;99409.66;;;45.66;11.38
50105;BME280;47690;39.202;-77.198;2023-04-01T05:46:34;99413.31;;;45.25;11.29
50105;BME280;47690;39.202;-77.198;2023-04-01T05:49:20;99414.88;;;46.13;10.62
50105;BME280;47690;39.202;-77.198;2023-04-01T05:51:50;99393.41;;;45.40;11.47
50105;BME280;47690;39.202;-77.198;2023-04-01T05:54:20;99388.69;;;45.72;11.02
50105;BME280;47690;39.202;-77.198;2023-04-01T05:56:49;99400.91;;;45.79;11.01
50105;BME280;47690;39.202;-77.198;2023-04-01T05:59:20;99383.59;;;45.60;11.50
50105;BME280;47690;39.202;-77.198;2023-04-01T06:01:50;99376.06;;;45.41;11.60
50105;BME280;47690;39.202;-77.198;2023-04-01T06:04:20;99387.72;;;45.52;11.36
50105;BME280;47690;39.202;-77.198;2023-04-01T06:06:50;99376.31;;;45.34;11.45
50105;BME280;47690;39.202;-77.198;2023-04-01T06:09:29;99359.59;;;45.72;11.98
50105;BME280;47690;39.202;-77.198;2023-04-01T06:15:25;99359.38;;;47.37;10.72
50105;BME280;47690;39.202;-77.198;2023-04-01T06:23:54;99349.47;;;46.28;11.16
50105;BME280;47690;39.202;-77.198;2023-04-01T06:29:30;99353.63;;;46.15;11.98
50105;BME280;47690;39.202;-77.198;2023-04-01T06:56:14;99315.91;;;48.56;10.59
50105;BME280;47690;39.202;-77.198;2023-04-01T06:59:10;99307.94;;;48.26;10.85
50105;BME280;47690;39.202;-77.198;2023-04-01T07:09:56;99245.22;;;47.88;10.83
50105;BME280;47690;39.202;-77.198;2023-04-01T07:12:38;99228.00;;;47.54;11.36
50105;BME280;47690;39.202;-77.198;2023-04-01T07:17:52;99195.63;;;47.67;10.88
50105;BME280;47690;39.202;-77.198;2023-04-01T07:20:23;99195.47;;;47.00;11.53
50105;BME280;47690;39.202;-77.198;2023-04-01T07:23:04;99189.22;;;47.00;11.87
50105;BME280;47690;39.202;-77.198;2023-04-01T07:25:47;99183.78;;;46.95;11.71
50105;BME280;47690;39.202;-77.198;2023-04-01T07:28:36;99154.22;;;47.45;11.38
50105;BME280;47690;39.202;-77.198;2023-04-01T07:34:17;99161.97;;;48.05;11.05
50105;BME280;47690;39.202;-77.198;2023-04-01T07:42:41;99153.00;;;48.04;11.28
50105;BME280;47690;39.202;-77.198;2023-04-01T07:45:25;99161.34;;;47.61;11.35
50105;BME280;47690;39.202;-77.198;2023-04-01T07:48:04;99155.03;;;47.46;11.06
50105;BME280;47690;39.202;-77.198;2023-04-01T07:51:09;99154.84;;;47.76;11.38
50105;BME280;47690;39.202;-77.198;2023-04-01T07:54:09;99135.59;;;47.86;11.21
50105;BME280;47690;39.202;-77.198;2023-04-01T07:57:12;99128.44;;;47.71;11.40
50105;BME280;47690;39.202;-77.198;2023-04-01T08:05:30;99092.41;;;47.41;11.60
50105;BME280;47690;39.202;-77.198;2023-04-01T08:08:27;99069.00;;;47.40;11.19
50105;BME280;47690;39.202;-77.198;2023-04-01T08:15:07;99063.91;;;46.95;12.17
50105;BME280;47690;39.202;-77.198;2023-04-01T08:23:21;99060.66;;;46.54;12.30
50105;BME280;47690;39.202;-77.198;2023-04-01T08:25:52;99041.09;;;46.52;12.21
50105;BME280;47690;39.202;-77.198;2023-04-01T08:28:40;99029.63;;;46.06;12.45
50105;BME280;47690;39.202;-77.198;2023-04-01T08:34:03;99059.44;;;46.85;12.00
50105;BME280;47690;39.202;-77.198;2023-04-01T08:36:39;99039.09;;;46.58;12.01
50105;BME280;47690;39.202;-77.198;2023-04-01T08:39:24;99047.59;;;46.75;12.20
50105;BME280;47690;39.202;-77.198;2023-04-01T08:48:39;99025.50;;;46.77;12.45
50105;BME280;47690;39.202;-77.198;2023-04-01T08:54:07;99016.03;;;47.27;11.64
50105;BME280;47690;39.202;-77.198;2023-04-01T09:20:42;98953.31;;;47.88;11.36
50105;BME280;47690;39.202;-77.198;2023-04-01T09:35:24;98935.53;;;48.64;11.07
50105;BME280;47690;39.202;-77.198;2023-04-01T09:44:16;98899.69;;;48.20;11.54
50105;BME280;47690;39.202;-77.198;2023-04-01T09:52:53;98915.06;;;47.32;11.94
50105;BME280;47690;39.202;-77.198;2023-04-01T09:59:24;98900.56;;;47.51;11.93
50105;BME280;47690;39.202;-77.198;2023-04-01T10:53:34;98816.38;;;49.09;10.65
50105;BME280;47690;39.202;-77.198;2023-04-01T11:03:18;98816.69;;;49.66;11.10
50105;BME280;47690;39.202;-77.198;2023-04-01T11:18:41;98802.16;;;48.35;11.72
50105;BME280;47690;39.202;-77.198;2023-04-01T11:42:56;98770.13;;;49.21;11.26
50105;BME280;47690;39.202;-77.198;2023-04-01T12:03:51;98809.00;;;49.10;11.27
50105;BME280;47690;39.202;-77.198;2023-04-01T12:20:40;98775.09;;;48.47;11.82
50105;BME280;47690;39.202;-77.198;2023-04-01T12:26:19;98794.78;;;48.90;11.78
50105;BME280;47690;39.202;-77.198;2023-04-01T12:31:58;98813.09;;;48.89;11.10
50105;BME280;47690;39.202;-77.198;2023-04-01T12:40:46;98813.31;;;51.26;10.42
50105;BME280;47690;39.202;-77.198;2023-04-01T13:06:40;98812.50;;;50.95;10.62
50105;BME280;47690;39.202;-77.198;2023-04-01T13:09:32;98814.16;;;50.05;10.76
50105;BME280;47690;39.202;-77.198;2023-04-01T13:12:23;98833.13;;;49.92;11.25
50105;BME280;47690;39.202;-77.198;2023-04-01T13:15:08;98835.91;;;48.62;12.11
50105;BME280;47690;39.202;-77.198;2023-04-01T13:17:59;98846.66;;;48.58;11.79
50105;BME280;47690;39.202;-77.198;2023-04-01T13:23:39;98879.16;;;47.86;12.37
50105;BME280;47690;39.202;-77.198;2023-04-01T13:26:38;98909.69;;;48.25;12.60
50105;BME280;47690;39.202;-77.198;2023-04-01T13:29:23;98925.41;;;47.49;12.67
50105;BME280;47690;39.202;-77.198;2023-04-01T13:41:20;98932.09;;;48.36;12.02
50105;BME280;47690;39.202;-77.198;2023-04-01T13:44:16;98905.88;;;48.49;11.99
50105;BME280;47690;39.202;-77.198;2023-04-01T13:50:05;98900.38;;;48.26;11.97
50105;BME280;47690;39.202;-77.198;2023-04-01T14:12:27;98834.50;;;49.37;10.56
50105;BME280;47690;39.202;-77.198;2023-04-01T14:21:05;98789.25;;;48.49;11.44
50105;BME280;47690;39.202;-77.198;2023-04-01T14:26:58;98783.13;;;48.75;11.40
50105;BME280;47690;39.202;-77.198;2023-04-01T14:41:42;98805.13;;;49.69;10.31
50105;BME280;47690;39.202;-77.198;2023-04-01T14:49:34;98810.88;;;48.68;11.51
50105;BME280;47690;39.202;-77.198;2023-04-01T14:54:44;98828.56;;;47.10;12.43
50105;BME280;47690;39.202;-77.198;2023-04-01T14:57:28;98846.13;;;47.03;12.53
50105;BME280;47690;39.202;-77.198;2023-04-01T15:00:15;98857.34;;;46.83;12.77
50105;BME280;47690;39.202;-77.198;2023-04-01T15:02:57;98871.19;;;46.86;12.55
50105;BME280;47690;39.202;-77.198;2023-04-01T15:08:50;98852.00;;;47.53;11.97
50105;BME280;47690;39.202;-77.198;2023-04-01T15:37:36;98783.59;;;47.77;12.03
50105;BME280;47690;39.202;-77.198;2023-04-01T15:52:10;98715.94;;;48.11;12.05
50105;BME280;47690;39.202;-77.198;2023-04-01T15:55:15;98689.50;;;48.11;11.96
50105;BME280;47690;39.202;-77.198;2023-04-01T16:07:29;98642.69;;;48.27;11.92
50105;BME280;47690;39.202;-77.198;2023-04-01T16:17:24;98623.66;;;49.38;11.43
50105;BME280;47690;39.202;-77.198;2023-04-01T16:21:10;98616.69;;;49.49;10.75
50105;BME280;47690;39.202;-77.198;2023-04-01T16:31:35;98589.72;;;49.39;10.92
50105;BME280;47690;39.202;-77.198;2023-04-01T16:35:33;98579.53;;;49.57;10.73
50105;BME280;47690;39.202;-77.198;2023-04-01T16:48:06;98554.19;;;49.87;10.18
50105;BME280;47690;39.202;-77.198;2023-04-01T17:04:58;98519.13;;;49.89;10.34
50105;BME280;47690;39.202;-77.198;2023-04-01T17:14:35;98496.22;;;49.55;10.56
50105;BME280;47690;39.202;-77.198;2023-04-01T17:17:34;98488.28;;;49.71;10.88
50105;BME280;47690;39.202;-77.198;2023-04-01T17:26:00;98462.75;;;52.12;9.27
50105;BME280;47690;39.202;-77.198;2023-04-01T17:31:42;98456.59;;;51.65;9.28
50105;BME280;47690;39.202;-77.198;2023-04-01T17:34:23;98453.97;;;52.47;8.75
50105;BME280;47690;39.202;-77.198;2023-04-01T17:40:20;98428.81;;;51.67;9.56
50105;BME280;47690;39.202;-77.198;2023-04-01T17:45:58;98412.47;;;51.70;9.13
50105;BME280;47690;39.202;-77.198;2023-04-01T17:48:45;98407.22;;;51.40;9.03
50105;BME280;47690;39.202;-77.198;2023-04-01T17:51:35;98396.44;;;51.35;9.00
50105;BME280;47690;39.202;-77.198;2023-04-01T18:03:07;98326.53;;;51.04;9.70
50105;BME280;47690;39.202;-77.198;2023-04-01T18:17:21;98284.91;;;53.86;6.80
50105;BME280;47690;39.202;-77.198;2023-04-01T18:25:28;98244.84;;;52.32;7.77
50105;BME280;47690;39.202;-77.198;2023-04-01T18:31:48;98212.16;;;52.11;7.75
50105;BME280;47690;39.202;-77.198;2023-04-01T18:38:13;98172.75;;;52.20;7.39
50105;BME280;47690;39.202;-77.198;2023-04-01T18:41:19;98163.78;;;52.39;7.15
50105;BME280;47690;39.202;-77.198;2023-04-01T18:56:41;98126.50;;;52.05;7.81
50105;BME280;47690;39.202;-77.198;2023-04-01T18:59:41;98113.34;;;52.27;8.10
50105;BME280;47690;39.202;-77.198;2023-04-01T19:02:35;98083.28;;;51.86;8.05
50105;BME280;47690;39.202;-77.198;2023-04-01T19:05:15;98086.03;;;52.02;8.23
50105;BME280;47690;39.202;-77.198;2023-04-01T19:07:53;98084.09;;;52.19;7.82
50105;BME280;47690;39.202;-77.198;2023-04-01T19:20:12;98022.81;;;51.99;7.21
50105;BME280;47690;39.202;-77.198;2023-04-01T19:35:35;97968.91;;;53.21;6.50
50105;BME280;47690;39.202;-77.198;2023-04-01T19:39:03;97954.78;;;53.23;6.59
50105;BME280;47690;39.202;-77.198;2023-04-01T19:56:40;97901.03;;;54.03;5.81
50105;BME280;47690;39.202;-77.198;2023-04-01T20:00:02;97894.09;;;53.82;6.57
50105;BME280;47690;39.202;-77.198;2023-04-01T20:22:28;97839.25;;;52.96;7.17
50105;BME280;47690;39.202;-77.198;2023-04-01T20:53:15;97808.78;;;54.51;5.54
50105;BME280;47690;39.202;-77.198;2023-04-01T21:01:58;97792.72;;;53.88;6.54
50105;BME280;47690;39.202;-77.198;2023-04-01T21:08:56;97773.28;;;53.19;6.71
50105;BME280;47690;39.202;-77.198;2023-04-01T21:15:16;97752.03;;;52.93;7.00
50105;BME280;47690;39.202;-77.198;2023-04-01T21:37:58;97766.94;;;52.68;6.29
50105;BME280;47690;39.202;-77.198;2023-04-01T22:17:51;97932.69;;;50.35;6.28
50105;BME280;47690;39.202;-77.198;2023-04-01T22:20:40;97972.09;;;50.59;5.48
50105;BME280;47690;39.202;-77.198;2023-04-01T22:23:59;97967.63;;;50.66;5.78
50105;BME280;47690;39.202;-77.198;2023-04-01T22:29:07;97984.34;;;49.61;6.59
50105;BME280;47690;39.202;-77.198;2023-04-01T22:31:47;97993.81;;;49.09;6.77
50105;BME280;47690;39.202;-77.198;2023-04-01T22:37:54;98028.91;;;48.56;6.79
50105;BME280;47690;39.202;-77.198;2023-04-01T22:56:20;98164.00;;;48.88;6.24
50105;BME280;47690;39.202;-77.198;2023-04-01T23:01:51;98197.88;;;48.57;6.29
50105;BME280;47690;39.202;-77.198;2023-04-01T23:04:59;98196.94;;;48.44;6.27
50105;BME280;47690;39.202;-77.198;2023-04-01T23:08:19;98238.72;;;48.09;6.42
50105;BME280;47690;39.202;-77.198;2023-04-01T23:10:58;98240.66;;;47.56;6.79
50105;BME280;47690;39.202;-77.198;2023-04-01T23:13:36;98250.34;;;47.30;6.87
50105;BME280;47690;39.202;-77.198;2023-04-01T23:16:09;98268.63;;;46.89;7.58
50105;BME280;47690;39.202;-77.198;2023-04-01T23:18:50;98307.41;;;46.41;7.10
50105;BME280;47690;39.202;-77.198;2023-04-01T23:21:39;98303.69;;;45.63;7.43
50105;BME280;47690;39.202;-77.198;2023-04-01T23:29:43;98340.22;;;44.95;7.94
50105;BME280;47690;39.202;-77.198;2023-04-01T23:32:18;98361.28;;;44.70;7.84
50105;BME280;47690;39.202;-77.198;2023-04-01T23:34:54;98398.56;;;44.65;7.79
50105;BME280;47690;39.202;-77.198;2023-04-01T23:37:27;98393.41;;;43.81;8.52
50105;BME280;47690;39.202;-77.198;2023-04-01T23:40:00;98401.84;;;43.50;8.57
50105;BME280;47690;39.202;-77.198;2023-04-01T23:42:39;98441.91;;;43.53;8.46
50105;BME280;47690;39.202;-77.198;2023-04-01T23:45:16;98431.75;;;43.39;8.46
50105;BME280;47690;39.202;-77.198;2023-04-01T23:47:49;98474.53;;;43.08;8.62
50105;BME280;47690;39.202;-77.198;2023-04-01T23:50:23;98473.75;;;43.02;8.54
50105;BME280;47690;39.202;-77.198;2023-04-01T23:53:24;98451.72;;;43.14;8.35
50105;BME280;47690;39.202;-77.198;2023-04-01T23:55:55;98486.94;;;42.64;8.36
50105;BME280;47690;39.202;-77.198;2023-04-01T23:58:42;98515.50;;;42.91;8.27
